Flight Track Log - Related Links

Times and Time Zones

All times are in EDT time to prevent confusion due to time zone crossing. See the VOZ1166 flight status page for this flight to view local times or setup timezone preferences in your user account.

Time Position Orientation Groundspeed Altitude Reporting Facility
EDT Latitude Longitude Course Direction KTS MPH feet Rate Location/Type
Fri 02:25:32 AM -30.3733 153.0495 205° Southwest 20,700  Level Aus ATC (Calculated)
Fri 02:27:00 AM -30.4045 153.0325 226° Southwest 238 274 3,700 -6,902 Descending Aus ATC (RADAR)
Fri 02:27:45 AM -30.4432 152.9867 226° Southwest 260 299 5,400 2,743 Climbing Aus ATC (RADAR)
Fri 02:28:10 AM -30.4659 152.9608 224° Southwest 270 311 6,900 3,600 Climbing Aus ATC (RADAR)
Fri 02:28:45 AM -30.4962 152.9259 225° Southwest 263 303 9,000 2,471 Climbing Aus ATC (RADAR)
Fri 02:29:35 AM -30.5371 152.8782 225° Southwest 251 289 10,400 1,680 Climbing Aus ATC (RADAR)
Fri 02:30:00 AM -30.5611 152.8506 225° Southwest 277 319 11,100 1,900 Climbing Aus ATC (RADAR)
Fri 02:30:35 AM -30.5962 152.8100 225° Southwest 303 349 12,300 2,541 Climbing Aus ATC (RADAR)
Fri 02:31:25 AM -30.6494 152.7487 225° Southwest 319 367 14,700 3,388 Climbing Aus ATC (RADAR)
Fri 02:32:00 AM -30.6870 152.7050 225° Southwest 326 375 17,100 3,675 Climbing Aus ATC (RADAR)
Fri 02:32:45 AM -30.7359 152.6485 225° Southwest 330 380 19,600 2,914 Climbing Aus ATC (RADAR)
Fri 02:33:10 AM -30.7635 152.6160 225° Southwest 337 388 20,500 2,308 Climbing Aus ATC (RADAR)
Fri 02:33:50 AM -30.8099 152.5617 225° Southwest 354 407 22,100 2,968 Climbing Aus ATC (RADAR)
Fri 02:34:45 AM -30.8754 152.4878 224° Southwest 355 409 25,200 3,375 Climbing Aus ATC (RADAR)
Fri 02:35:10 AM -30.9037 152.4555 224° Southwest 345 397 26,600 2,949 Climbing Aus ATC (RADAR)
Fri 02:35:44 AM -30.9426 152.4114 224° Southwest 338 389 28,100 2,582 Climbing Aus ATC (RADAR)
Fri 02:36:29 AM -30.9918 152.3541 225° Southwest 332 382 30,000 1,500 Climbing Aus ATC (RADAR)
Fri 02:37:04 AM -31.0302 152.3100 225° Southwest 333 383 30,100 71 Climbing Aus ATC (RADAR)
Fri 02:37:54 AM -31.0847 152.2473 225° Southwest 330 380 30,100  Level Aus ATC (RADAR)
Fri 02:38:24 AM -31.1174 152.2096 225° Southwest 332 382 30,100  Level Aus ATC (RADAR)
Fri 02:38:59 AM -31.1554 152.1658 225° Southwest 331 381 30,100  Level Aus ATC (RADAR)
Fri 02:40:09 AM -31.2319 152.0777 225° Southwest 334 384 30,100  Level Aus ATC (RADAR)
Fri 02:40:29 AM -31.2537 152.0524 225° Southwest 334 384 30,100  Level Aus ATC (RADAR)
Fri 02:41:04 AM -31.2918 152.0082 225° Southwest 333 383 30,100  Level Aus ATC (RADAR)
Fri 02:41:49 AM -31.3410 151.9514 225° Southwest 333 383 30,100  Level Aus ATC (RADAR)
Fri 02:42:24 AM -31.3792 151.9068 225° Southwest 333 383 30,100  Level Aus ATC (RADAR)
Fri 02:43:09 AM -31.4337 151.8544 219° Southwest 345 397 30,100  Level Aus ATC (RADAR)
Fri 02:43:34 AM -31.4708 151.8359 203° Southwest 346 398 30,100 -95 Level Aus ATC (RADAR)
Fri 02:44:12 AM -31.5284 151.8139 198° South 348 400 30,000  Descending Aus ATC (RADAR)
Fri 02:45:04 AM -31.6127 151.7851 196° South 353 406 30,100 79 Climbing Aus ATC (RADAR)
Fri 02:45:28 AM -31.6521 151.7720 196° South 353 406 30,100  Level Aus ATC (RADAR)
Fri 02:46:03 AM -31.7068 151.7524 197° South 352 405 30,100 -72 Level Aus ATC (RADAR)
Fri 02:46:51 AM -31.7802 151.7268 197° South 351 404 30,000  Descending Aus ATC (RADAR)
Fri 02:47:28 AM -31.8398 151.7057 197° South 351 404 30,100 73 Climbing Aus ATC (RADAR)
Fri 02:48:13 AM -31.9103 151.6809 197° South 351 404 30,100  Level Aus ATC (RADAR)
Fri 02:48:38 AM -31.9496 151.6670 197° South 352 405 30,100  Level Aus ATC (RADAR)
Fri 02:49:13 AM -32.0045 151.6477 197° South 352 405 30,100  Level Aus ATC (RADAR)
Fri 02:50:16 AM -32.1021 151.6129 197° South 354 407 30,100  Level Aus ATC (RADAR)
Fri 02:50:33 AM -32.1306 151.6031 196° South 354 407 30,100  Level Aus ATC (RADAR)
Fri 02:51:13 AM -32.1937 151.5809 197° South 354 407 30,100  Level Aus ATC (RADAR)
Fri 02:51:58 AM -32.2646 151.5555 197° South 354 407 30,100  Level Aus ATC (RADAR)
Fri 02:52:32 AM -32.3200 151.5361 196° South 355 409 30,100  Level Aus ATC (RADAR)
Fri 02:53:20 AM -32.3939 151.5097 197° South 354 407 30,100  Level Aus ATC (RADAR)
Fri 02:53:47 AM -32.4383 151.4939 197° South 355 409 30,100  Level Aus ATC (RADAR)
Fri 02:54:22 AM -32.4935 151.4745 197° South 355 409 30,100 -1,074 Level Aus ATC (RADAR)
Fri 02:55:22 AM -32.5873 151.4406 197° South 350 403 28,400 -1,906 Descending Aus ATC (RADAR)
Fri 02:55:47 AM -32.6270 151.4262 197° South 352 405 27,400 -2,500 Descending Aus ATC (RADAR)
Fri 02:56:22 AM -32.6835 151.4060 197° South 360 414 25,900 -2,538 Descending Aus ATC (RADAR)
Fri 02:57:05 AM -32.7525 151.3824 196° South 369 425 24,100 -2,462 Descending Aus ATC (RADAR)
Fri 02:57:40 AM -32.8102 151.3611 197° South 373 429 22,700 -2,268 Descending Aus ATC (RADAR)
Fri 02:58:27 AM -32.8878 151.3327 197° South 360 414 21,000 -2,167 Descending Aus ATC (RADAR)
Fri 02:58:52 AM -32.9272 151.3186 197° South 353 406 20,100 -2,100 Descending Aus ATC (RADAR)
Fri 02:59:27 AM -32.9815 151.2986 197° South 347 399 18,900 -1,976 Descending Aus ATC (RADAR)
Fri 03:00:17 AM -33.0566 151.2713 197° South 335 386 17,300 -1,920 Descending Aus ATC (RADAR)
Fri 03:00:42 AM -33.0931 151.2586 196° South 329 379 16,500 -1,932 Descending Aus ATC (RADAR)
Fri 03:01:16 AM -33.1441 151.2404 197° South 324 373 15,400 -1,899 Descending Aus ATC (RADAR)
Fri 03:02:01 AM -33.2092 151.2210 194° South 314 361 14,000 -1,875 Descending Aus ATC (RADAR)
Fri 03:02:36 AM -33.2620 151.2187 182° South 316 364 12,900 -1,800 Descending Aus ATC (RADAR)
Fri 03:03:11 AM -33.3130 151.2157 183° South 308 354 11,900 -1,726 Descending Aus ATC (RADAR)
Fri 03:03:49 AM -33.3669 151.2131 182° South 314 361 10,800 -1,479 Descending Aus ATC (RADAR)
Fri 03:04:24 AM -33.4167 151.2101 183° South 307 353 10,100 -1,118 Descending Aus ATC (RADAR)
Fri 03:05:31 AM -33.5022 151.2058 182° South 263 303 8,900 -1,109 Descending Aus ATC (RADAR)
Fri 03:05:56 AM -33.5334 151.2038 183° South 263 303 8,400 -1,238 Descending Aus ATC (RADAR)
Fri 03:06:34 AM -33.5792 151.2016 182° South 266 306 7,600 -1,098 Descending Aus ATC (RADAR)
Fri 03:07:18 AM -33.6345 151.1983 183° South 267 307 6,900 -608 Descending Aus ATC (RADAR)
Fri 03:07:53 AM -33.6788 151.1957 183° South 274 315 6,800 -171 Descending Aus ATC (RADAR)
Fri 03:08:28 AM -33.7240 151.1931 183° South 280 322 6,700 -171 Descending Aus ATC (RADAR)
Fri 03:09:03 AM -33.7648 151.2174 154° Southeast 283 326 6,600 -160 Descending Aus ATC (RADAR)
Fri 03:09:43 AM -33.8064 151.2574 141° Southeast 285 328 6,500 -168 Descending Aus ATC (RADAR)
Fri 03:10:50 AM -33.8846 151.3003 155° Southeast 269 310 6,300 -220 Descending Aus ATC (RADAR)
Fri 03:11:05 AM -33.9027 151.3072 162° South 268 308 6,200 -340 Descending Aus ATC (RADAR)
Fri 03:11:43 AM -33.9480 151.3189 168° South 269 310 6,000 -217 Descending Aus ATC (RADAR)
Fri 03:12:28 AM -34.0021 151.3326 168° South 265 305 5,900 -525 Descending Aus ATC (RADAR)
Fri 03:13:03 AM -34.0436 151.3434 168° South 260 299 5,300 -987 Descending Aus ATC (RADAR)
Fri 03:13:47 AM -34.0942 151.3555 169° South 246 283 4,600 -957 Descending Aus ATC (RADAR)
Fri 03:14:12 AM -34.1220 151.3606 171° South 243 280 4,200 -700 Descending Aus ATC (RADAR)
Fri 03:14:47 AM -34.1497 151.3314 221° Southwest 230 265 3,900 -600 Descending Aus ATC (RADAR)
Fri 03:15:42 AM -34.1228 151.2788 302° West 204 235 3,300 -750 Descending Aus ATC (RADAR)
Fri 03:16:07 AM -34.1057 151.2606 319° Northwest 197 227 2,900 -931 Descending Aus ATC (RADAR)
Fri 03:16:40 AM -34.0836 151.2369 318° Northwest 192 221 2,400 -1,000 Descending Aus ATC (RADAR)
Fri 03:17:25 AM -34.0512 151.2143 330° Northwest 180 207 1,600 -951 Descending Aus ATC (RADAR)
Fri 03:18:02 AM -34.0240 151.2076 348° North 160 184 1,100 -805 Descending Aus ATC (RADAR)
Fri 03:18:47 AM -33.9948 151.2002 348° North 142 163 500 -771 Descending Aus ATC (RADAR)
Fri 03:19:12 AM -33.9790 151.1960 348° North 142 163 200 -720 Descending Aus ATC (RADAR)
Fri 03:19:50 AM -33.9563 151.1899 347° North 124 143 -316 Descending Aus ATC (RADAR)

Login

Don't have an account? Register now (free) for customized features, flight alerts, and more!